sensor_id;sensor_type;location;lat;lon;timestamp;P1;durP1;ratioP1;P2;durP2;ratioP2
61527;SDS011;47395;42.032;-8.634;2024-01-30T00:01:16;48.05;;;34.72;;
61527;SDS011;47395;42.032;-8.634;2024-01-30T00:03:18;54.70;;;35.50;;
61527;SDS011;47395;42.032;-8.634;2024-01-30T00:05:19;62.28;;;37.50;;
61527;SDS011;47395;42.032;-8.634;2024-01-30T00:07:20;58.05;;;40.25;;
61527;SDS011;47395;42.032;-8.634;2024-01-30T00:09:23;56.25;;;38.17;;
61527;SDS011;47395;42.032;-8.634;2024-01-30T00:11:24;50.40;;;34.28;;
61527;SDS011;47395;42.032;-8.634;2024-01-30T00:13:27;57.40;;;35.08;;
61527;SDS011;47395;42.032;-8.634;2024-01-30T00:15:28;48.55;;;32.38;;
61527;SDS011;47395;42.032;-8.634;2024-01-30T00:17:30;53.10;;;35.28;;
61527;SDS011;47395;42.032;-8.634;2024-01-30T00:19:31;62.53;;;36.38;;
61527;SDS011;47395;42.032;-8.634;2024-01-30T00:21:32;60.83;;;37.13;;
61527;SDS011;47395;42.032;-8.634;2024-01-30T00:23:33;64.38;;;40.33;;
61527;SDS011;47395;42.032;-8.634;2024-01-30T00:25:34;58.03;;;40.15;;
61527;SDS011;47395;42.032;-8.634;2024-01-30T00:27:35;63.80;;;39.65;;
61527;SDS011;47395;42.032;-8.634;2024-01-30T00:29:36;53.72;;;39.33;;
61527;SDS011;47395;42.032;-8.634;2024-01-30T00:31:37;55.33;;;38.08;;
61527;SDS011;47395;42.032;-8.634;2024-01-30T00:33:38;49.40;;;35.58;;
61527;SDS011;47395;42.032;-8.634;2024-01-30T00:35:40;54.75;;;35.45;;
61527;SDS011;47395;42.032;-8.634;2024-01-30T00:37:41;58.30;;;39.00;;
61527;SDS011;47395;42.032;-8.634;2024-01-30T00:39:42;59.88;;;39.97;;
61527;SDS011;47395;42.032;-8.634;2024-01-30T00:41:44;56.30;;;39.10;;
61527;SDS011;47395;42.032;-8.634;2024-01-30T00:43:45;52.40;;;37.72;;
61527;SDS011;47395;42.032;-8.634;2024-01-30T00:45:48;59.40;;;39.45;;
61527;SDS011;47395;42.032;-8.634;2024-01-30T00:47:49;52.60;;;37.72;;
61527;SDS011;47395;42.032;-8.634;2024-01-30T00:49:50;58.20;;;37.83;;
61527;SDS011;47395;42.032;-8.634;2024-01-30T00:51:51;55.47;;;38.53;;
61527;SDS011;47395;42.032;-8.634;2024-01-30T00:53:52;58.05;;;39.83;;
61527;SDS011;47395;42.032;-8.634;2024-01-30T00:55:54;56.88;;;37.55;;
61527;SDS011;47395;42.032;-8.634;2024-01-30T00:57:57;58.78;;;37.50;;
61527;SDS011;47395;42.032;-8.634;2024-01-30T00:59:59;55.28;;;38.13;;
61527;SDS011;47395;42.032;-8.634;2024-01-30T01:02:01;51.00;;;36.30;;
61527;SDS011;47395;42.032;-8.634;2024-01-30T01:04:02;57.63;;;36.70;;
61527;SDS011;47395;42.032;-8.634;2024-01-30T01:06:04;51.38;;;35.38;;
61527;SDS011;47395;42.032;-8.634;2024-01-30T01:08:06;56.40;;;32.47;;
61527;SDS011;47395;42.032;-8.634;2024-01-30T01:10:08;48.85;;;33.72;;
61527;SDS011;47395;42.032;-8.634;2024-01-30T01:12:11;55.08;;;33.72;;
61527;SDS011;47395;42.032;-8.634;2024-01-30T01:14:16;54.00;;;33.85;;
61527;SDS011;47395;42.032;-8.634;2024-01-30T01:16:17;56.10;;;35.60;;
61527;SDS011;47395;42.032;-8.634;2024-01-30T01:18:18;52.45;;;34.65;;
61527;SDS011;47395;42.032;-8.634;2024-01-30T01:20:21;54.75;;;35.55;;
61527;SDS011;47395;42.032;-8.634;2024-01-30T01:22:24;64.32;;;35.10;;
61527;SDS011;47395;42.032;-8.634;2024-01-30T01:24:25;51.85;;;34.53;;
61527;SDS011;47395;42.032;-8.634;2024-01-30T01:26:26;51.30;;;35.35;;
61527;SDS011;47395;42.032;-8.634;2024-01-30T01:28:28;61.60;;;37.38;;
61527;SDS011;47395;42.032;-8.634;2024-01-30T01:30:29;56.38;;;37.10;;
61527;SDS011;47395;42.032;-8.634;2024-01-30T01:32:30;61.50;;;37.72;;
61527;SDS011;47395;42.032;-8.634;2024-01-30T01:34:33;51.75;;;36.80;;
61527;SDS011;47395;42.032;-8.634;2024-01-30T01:36:35;60.42;;;36.80;;
61527;SDS011;47395;42.032;-8.634;2024-01-30T01:38:36;52.42;;;37.40;;
61527;SDS011;47395;42.032;-8.634;2024-01-30T01:40:37;60.90;;;39.17;;
61527;SDS011;47395;42.032;-8.634;2024-01-30T01:42:40;57.55;;;38.83;;
61527;SDS011;47395;42.032;-8.634;2024-01-30T01:44:41;59.72;;;39.13;;
61527;SDS011;47395;42.032;-8.634;2024-01-30T01:46:42;61.80;;;38.28;;
61527;SDS011;47395;42.032;-8.634;2024-01-30T01:48:43;60.67;;;38.88;;
61527;SDS011;47395;42.032;-8.634;2024-01-30T01:50:46;62.33;;;39.20;;
61527;SDS011;47395;42.032;-8.634;2024-01-30T01:52:48;62.13;;;40.20;;
61527;SDS011;47395;42.032;-8.634;2024-01-30T01:54:51;61.17;;;40.97;;
61527;SDS011;47395;42.032;-8.634;2024-01-30T01:56:53;61.13;;;39.92;;
61527;SDS011;47395;42.032;-8.634;2024-01-30T01:58:54;68.78;;;40.85;;
61527;SDS011;47395;42.032;-8.634;2024-01-30T02:00:56;60.15;;;37.20;;
61527;SDS011;47395;42.032;-8.634;2024-01-30T02:02:58;65.18;;;39.03;;
61527;SDS011;47395;42.032;-8.634;2024-01-30T02:05:02;58.92;;;39.60;;
61527;SDS011;47395;42.032;-8.634;2024-01-30T02:07:04;58.35;;;39.63;;
61527;SDS011;47395;42.032;-8.634;2024-01-30T02:09:05;62.65;;;39.97;;
61527;SDS011;47395;42.032;-8.634;2024-01-30T02:11:06;58.85;;;39.70;;
61527;SDS011;47395;42.032;-8.634;2024-01-30T02:13:09;61.65;;;39.40;;
61527;SDS011;47395;42.032;-8.634;2024-01-30T02:15:13;59.60;;;39.63;;
61527;SDS011;47395;42.032;-8.634;2024-01-30T02:17:15;66.85;;;39.03;;
61527;SDS011;47395;42.032;-8.634;2024-01-30T02:19:18;77.18;;;41.28;;
61527;SDS011;47395;42.032;-8.634;2024-01-30T02:21:22;64.70;;;40.35;;
61527;SDS011;47395;42.032;-8.634;2024-01-30T02:23:24;59.92;;;40.25;;
61527;SDS011;47395;42.032;-8.634;2024-01-30T02:25:38;54.33;;;39.15;;
61527;SDS011;47395;42.032;-8.634;2024-01-30T02:27:44;64.25;;;40.17;;
61527;SDS011;47395;42.032;-8.634;2024-01-30T02:29:45;59.42;;;40.17;;
61527;SDS011;47395;42.032;-8.634;2024-01-30T02:31:47;64.13;;;41.85;;
61527;SDS011;47395;42.032;-8.634;2024-01-30T02:33:48;59.60;;;41.00;;
61527;SDS011;47395;42.032;-8.634;2024-01-30T02:35:50;60.65;;;38.40;;
61527;SDS011;47395;42.032;-8.634;2024-01-30T02:37:51;56.78;;;36.97;;
61527;SDS011;47395;42.032;-8.634;2024-01-30T02:39:53;53.88;;;36.10;;
61527;SDS011;47395;42.032;-8.634;2024-01-30T02:41:55;50.47;;;32.92;;
61527;SDS011;47395;42.032;-8.634;2024-01-30T02:43:57;54.95;;;33.90;;
61527;SDS011;47395;42.032;-8.634;2024-01-30T02:45:58;53.25;;;34.70;;
61527;SDS011;47395;42.032;-8.634;2024-01-30T02:48:02;54.90;;;33.10;;
61527;SDS011;47395;42.032;-8.634;2024-01-30T02:50:05;51.85;;;34.42;;
61527;SDS011;47395;42.032;-8.634;2024-01-30T02:52:10;50.25;;;33.60;;
61527;SDS011;47395;42.032;-8.634;2024-01-30T02:54:12;51.88;;;33.15;;
61527;SDS011;47395;42.032;-8.634;2024-01-30T02:56:14;47.55;;;33.30;;
61527;SDS011;47395;42.032;-8.634;2024-01-30T02:58:17;52.92;;;34.05;;
61527;SDS011;47395;42.032;-8.634;2024-01-30T03:00:19;52.15;;;33.80;;
61527;SDS011;47395;42.032;-8.634;2024-01-30T03:02:23;48.70;;;33.35;;
61527;SDS011;47395;42.032;-8.634;2024-01-30T03:04:24;50.95;;;33.63;;
61527;SDS011;47395;42.032;-8.634;2024-01-30T03:06:26;51.25;;;32.70;;
61527;SDS011;47395;42.032;-8.634;2024-01-30T03:08:29;53.63;;;32.95;;
61527;SDS011;47395;42.032;-8.634;2024-01-30T03:10:30;48.15;;;30.73;;
61527;SDS011;47395;42.032;-8.634;2024-01-30T03:12:32;48.08;;;31.85;;
61527;SDS011;47395;42.032;-8.634;2024-01-30T03:14:34;43.40;;;29.85;;
61527;SDS011;47395;42.032;-8.634;2024-01-30T03:16:35;46.17;;;30.15;;
61527;SDS011;47395;42.032;-8.634;2024-01-30T03:18:41;44.97;;;31.48;;
61527;SDS011;47395;42.032;-8.634;2024-01-30T03:20:42;44.35;;;29.60;;
61527;SDS011;47395;42.032;-8.634;2024-01-30T03:22:43;43.25;;;28.30;;
61527;SDS011;47395;42.032;-8.634;2024-01-30T03:24:44;43.00;;;29.02;;
61527;SDS011;47395;42.032;-8.634;2024-01-30T03:26:51;41.28;;;30.25;;
61527;SDS011;47395;42.032;-8.634;2024-01-30T03:28:52;43.50;;;30.63;;
61527;SDS011;47395;42.032;-8.634;2024-01-30T03:30:53;45.45;;;29.95;;
61527;SDS011;47395;42.032;-8.634;2024-01-30T03:32:59;42.55;;;29.52;;
61527;SDS011;47395;42.032;-8.634;2024-01-30T03:35:00;41.20;;;29.80;;
61527;SDS011;47395;42.032;-8.634;2024-01-30T03:37:01;41.90;;;26.50;;
61527;SDS011;47395;42.032;-8.634;2024-01-30T03:39:02;40.97;;;26.85;;
61527;SDS011;47395;42.032;-8.634;2024-01-30T03:41:07;46.03;;;27.08;;
61527;SDS011;47395;42.032;-8.634;2024-01-30T03:43:08;38.75;;;25.02;;
61527;SDS011;47395;42.032;-8.634;2024-01-30T03:45:09;40.38;;;25.95;;
61527;SDS011;47395;42.032;-8.634;2024-01-30T03:47:10;42.92;;;28.05;;
61527;SDS011;47395;42.032;-8.634;2024-01-30T03:49:11;38.58;;;28.10;;
61527;SDS011;47395;42.032;-8.634;2024-01-30T03:51:13;41.72;;;26.75;;
61527;SDS011;47395;42.032;-8.634;2024-01-30T03:53:15;45.65;;;27.33;;
61527;SDS011;47395;42.032;-8.634;2024-01-30T03:55:16;34.92;;;24.95;;
61527;SDS011;47395;42.032;-8.634;2024-01-30T03:57:17;39.92;;;25.40;;
61527;SDS011;47395;42.032;-8.634;2024-01-30T03:59:18;39.60;;;25.70;;
61527;SDS011;47395;42.032;-8.634;2024-01-30T04:01:24;41.05;;;26.25;;
61527;SDS011;47395;42.032;-8.634;2024-01-30T04:03:25;46.67;;;26.50;;
61527;SDS011;47395;42.032;-8.634;2024-01-30T04:05:27;37.25;;;26.33;;
61527;SDS011;47395;42.032;-8.634;2024-01-30T04:07:28;42.63;;;28.92;;
61527;SDS011;47395;42.032;-8.634;2024-01-30T04:09:29;42.80;;;27.67;;
61527;SDS011;47395;42.032;-8.634;2024-01-30T04:11:30;48.95;;;29.02;;
61527;SDS011;47395;42.032;-8.634;2024-01-30T04:13:32;39.90;;;28.65;;
61527;SDS011;47395;42.032;-8.634;2024-01-30T04:15:34;37.42;;;28.13;;
61527;SDS011;47395;42.032;-8.634;2024-01-30T04:17:36;42.50;;;28.17;;
61527;SDS011;47395;42.032;-8.634;2024-01-30T04:19:37;40.55;;;29.52;;
61527;SDS011;47395;42.032;-8.634;2024-01-30T04:21:40;46.08;;;28.83;;
61527;SDS011;47395;42.032;-8.634;2024-01-30T04:23:41;43.42;;;28.88;;
61527;SDS011;47395;42.032;-8.634;2024-01-30T04:25:43;40.63;;;29.27;;
61527;SDS011;47395;42.032;-8.634;2024-01-30T04:27:44;39.05;;;28.45;;
61527;SDS011;47395;42.032;-8.634;2024-01-30T04:29:45;45.15;;;28.75;;
61527;SDS011;47395;42.032;-8.634;2024-01-30T04:31:46;47.15;;;28.45;;
61527;SDS011;47395;42.032;-8.634;2024-01-30T04:33:49;46.33;;;30.05;;
61527;SDS011;47395;42.032;-8.634;2024-01-30T04:35:50;39.65;;;27.75;;
61527;SDS011;47395;42.032;-8.634;2024-01-30T04:37:52;43.58;;;27.80;;
61527;SDS011;47395;42.032;-8.634;2024-01-30T04:39:56;43.20;;;26.33;;
61527;SDS011;47395;42.032;-8.634;2024-01-30T04:41:57;39.47;;;27.02;;
61527;SDS011;47395;42.032;-8.634;2024-01-30T04:43:58;42.80;;;26.52;;
61527;SDS011;47395;42.032;-8.634;2024-01-30T04:45:59;41.13;;;26.85;;
61527;SDS011;47395;42.032;-8.634;2024-01-30T04:48:00;37.20;;;27.48;;
61527;SDS011;47395;42.032;-8.634;2024-01-30T04:50:01;42.53;;;27.08;;
61527;SDS011;47395;42.032;-8.634;2024-01-30T04:52:03;41.17;;;26.52;;
61527;SDS011;47395;42.032;-8.634;2024-01-30T04:54:04;40.80;;;26.88;;
61527;SDS011;47395;42.032;-8.634;2024-01-30T04:56:05;37.53;;;25.42;;
61527;SDS011;47395;42.032;-8.634;2024-01-30T04:58:07;37.42;;;25.58;;
61527;SDS011;47395;42.032;-8.634;2024-01-30T05:00:08;40.92;;;25.05;;
61527;SDS011;47395;42.032;-8.634;2024-01-30T05:06:30;41.97;;;26.13;;
61527;SDS011;47395;42.032;-8.634;2024-01-30T05:08:31;40.28;;;24.35;;
61527;SDS011;47395;42.032;-8.634;2024-01-30T05:10:32;39.60;;;25.17;;
61527;SDS011;47395;42.032;-8.634;2024-01-30T05:12:33;34.67;;;24.50;;
61527;SDS011;47395;42.032;-8.634;2024-01-30T05:14:35;39.58;;;23.95;;
61527;SDS011;47395;42.032;-8.634;2024-01-30T05:16:36;39.42;;;24.85;;
61527;SDS011;47395;42.032;-8.634;2024-01-30T05:18:38;42.10;;;25.17;;
61527;SDS011;47395;42.032;-8.634;2024-01-30T05:20:39;37.80;;;24.90;;
61527;SDS011;47395;42.032;-8.634;2024-01-30T05:22:40;40.67;;;25.55;;
61527;SDS011;47395;42.032;-8.634;2024-01-30T05:24:45;39.63;;;24.75;;
61527;SDS011;47395;42.032;-8.634;2024-01-30T05:26:46;43.78;;;25.45;;
61527;SDS011;47395;42.032;-8.634;2024-01-30T05:28:48;37.95;;;25.73;;
61527;SDS011;47395;42.032;-8.634;2024-01-30T05:30:49;39.05;;;24.33;;
61527;SDS011;47395;42.032;-8.634;2024-01-30T05:32:50;33.30;;;24.08;;
61527;SDS011;47395;42.032;-8.634;2024-01-30T05:34:51;34.75;;;24.92;;
61527;SDS011;47395;42.032;-8.634;2024-01-30T05:36:52;33.42;;;26.08;;
61527;SDS011;47395;42.032;-8.634;2024-01-30T05:38:53;37.00;;;24.75;;
61527;SDS011;47395;42.032;-8.634;2024-01-30T05:40:54;33.30;;;25.35;;
61527;SDS011;47395;42.032;-8.634;2024-01-30T05:42:56;37.60;;;25.92;;
61527;SDS011;47395;42.032;-8.634;2024-01-30T05:45:03;32.20;;;24.05;;
61527;SDS011;47395;42.032;-8.634;2024-01-30T05:47:06;40.15;;;26.30;;
61527;SDS011;47395;42.032;-8.634;2024-01-30T05:49:07;33.20;;;24.20;;
61527;SDS011;47395;42.032;-8.634;2024-01-30T05:51:08;37.30;;;23.38;;
61527;SDS011;47395;42.032;-8.634;2024-01-30T05:53:09;32.60;;;23.85;;
61527;SDS011;47395;42.032;-8.634;2024-01-30T05:55:11;35.83;;;24.63;;
61527;SDS011;47395;42.032;-8.634;2024-01-30T05:57:12;36.30;;;24.75;;
61527;SDS011;47395;42.032;-8.634;2024-01-30T05:59:13;29.25;;;23.30;;
61527;SDS011;47395;42.032;-8.634;2024-01-30T06:01:16;35.22;;;23.50;;
61527;SDS011;47395;42.032;-8.634;2024-01-30T06:03:16;40.42;;;25.10;;
61527;SDS011;47395;42.032;-8.634;2024-01-30T06:05:18;39.40;;;24.33;;
61527;SDS011;47395;42.032;-8.634;2024-01-30T06:07:19;37.20;;;25.77;;
61527;SDS011;47395;42.032;-8.634;2024-01-30T06:09:22;41.25;;;25.58;;
61527;SDS011;47395;42.032;-8.634;2024-01-30T06:11:24;38.50;;;25.67;;
61527;SDS011;47395;42.032;-8.634;2024-01-30T06:13:25;37.50;;;24.10;;
61527;SDS011;47395;42.032;-8.634;2024-01-30T06:15:27;41.10;;;26.05;;
61527;SDS011;47395;42.032;-8.634;2024-01-30T06:17:30;33.33;;;23.88;;
61527;SDS011;47395;42.032;-8.634;2024-01-30T06:19:31;38.63;;;23.40;;
61527;SDS011;47395;42.032;-8.634;2024-01-30T06:21:32;37.70;;;23.67;;
61527;SDS011;47395;42.032;-8.634;2024-01-30T06:23:37;47.10;;;24.83;;
61527;SDS011;47395;42.032;-8.634;2024-01-30T06:25:38;34.90;;;25.67;;
61527;SDS011;47395;42.032;-8.634;2024-01-30T06:27:39;35.90;;;25.42;;
61527;SDS011;47395;42.032;-8.634;2024-01-30T06:29:41;34.15;;;24.17;;
61527;SDS011;47395;42.032;-8.634;2024-01-30T06:31:45;38.30;;;25.38;;
61527;SDS011;47395;42.032;-8.634;2024-01-30T06:33:49;35.45;;;24.27;;
61527;SDS011;47395;42.032;-8.634;2024-01-30T06:35:51;33.65;;;23.80;;
61527;SDS011;47395;42.032;-8.634;2024-01-30T06:37:52;33.67;;;22.98;;
61527;SDS011;47395;42.032;-8.634;2024-01-30T06:39:53;35.22;;;23.20;;
61527;SDS011;47395;42.032;-8.634;2024-01-30T06:41:54;30.95;;;24.20;;
61527;SDS011;47395;42.032;-8.634;2024-01-30T06:43:55;34.25;;;23.85;;
61527;SDS011;47395;42.032;-8.634;2024-01-30T06:45:56;28.48;;;22.35;;
61527;SDS011;47395;42.032;-8.634;2024-01-30T06:47:57;35.13;;;22.05;;
61527;SDS011;47395;42.032;-8.634;2024-01-30T06:49:59;30.67;;;22.05;;
61527;SDS011;47395;42.032;-8.634;2024-01-30T06:52:02;29.83;;;22.83;;
61527;SDS011;47395;42.032;-8.634;2024-01-30T06:54:05;36.88;;;23.02;;
61527;SDS011;47395;42.032;-8.634;2024-01-30T06:56:06;29.70;;;21.63;;
61527;SDS011;47395;42.032;-8.634;2024-01-30T06:58:08;32.47;;;22.42;;
61527;SDS011;47395;42.032;-8.634;2024-01-30T07:00:09;32.38;;;21.45;;
61527;SDS011;47395;42.032;-8.634;2024-01-30T07:02:11;32.25;;;22.23;;
61527;SDS011;47395;42.032;-8.634;2024-01-30T07:04:12;29.27;;;21.88;;
61527;SDS011;47395;42.032;-8.634;2024-01-30T07:06:14;30.10;;;22.33;;
61527;SDS011;47395;42.032;-8.634;2024-01-30T07:08:15;31.60;;;21.65;;
61527;SDS011;47395;42.032;-8.634;2024-01-30T07:10:17;33.28;;;22.15;;
61527;SDS011;47395;42.032;-8.634;2024-01-30T07:12:18;31.08;;;21.48;;
61527;SDS011;47395;42.032;-8.634;2024-01-30T07:14:19;32.67;;;22.17;;
61527;SDS011;47395;42.032;-8.634;2024-01-30T07:16:20;30.20;;;20.30;;
61527;SDS011;47395;42.032;-8.634;2024-01-30T07:18:24;29.42;;;21.60;;
61527;SDS011;47395;42.032;-8.634;2024-01-30T07:20:25;29.55;;;21.17;;
61527;SDS011;47395;42.032;-8.634;2024-01-30T07:22:26;31.85;;;22.85;;
61527;SDS011;47395;42.032;-8.634;2024-01-30T07:24:27;30.85;;;21.20;;
61527;SDS011;47395;42.032;-8.634;2024-01-30T07:26:27;28.63;;;20.67;;
61527;SDS011;47395;42.032;-8.634;2024-01-30T07:28:30;33.78;;;21.67;;
61527;SDS011;47395;42.032;-8.634;2024-01-30T07:30:32;35.53;;;21.02;;
61527;SDS011;47395;42.032;-8.634;2024-01-30T07:32:35;37.33;;;21.17;;
61527;SDS011;47395;42.032;-8.634;2024-01-30T07:34:36;27.60;;;19.67;;
61527;SDS011;47395;42.032;-8.634;2024-01-30T07:36:37;33.28;;;20.73;;
61527;SDS011;47395;42.032;-8.634;2024-01-30T07:38:38;36.63;;;20.08;;
61527;SDS011;47395;42.032;-8.634;2024-01-30T07:40:39;26.50;;;20.58;;
61527;SDS011;47395;42.032;-8.634;2024-01-30T07:42:40;33.85;;;21.55;;
61527;SDS011;47395;42.032;-8.634;2024-01-30T07:44:42;29.90;;;19.90;;
61527;SDS011;47395;42.032;-8.634;2024-01-30T07:46:44;25.75;;;19.83;;
61527;SDS011;47395;42.032;-8.634;2024-01-30T07:48:46;33.00;;;19.65;;
61527;SDS011;47395;42.032;-8.634;2024-01-30T07:50:48;32.50;;;19.67;;
61527;SDS011;47395;42.032;-8.634;2024-01-30T07:52:49;26.38;;;18.63;;
61527;SDS011;47395;42.032;-8.634;2024-01-30T07:54:54;29.25;;;19.75;;
61527;SDS011;47395;42.032;-8.634;2024-01-30T07:56:55;27.77;;;19.50;;
61527;SDS011;47395;42.032;-8.634;2024-01-30T07:58:56;28.20;;;19.58;;
61527;SDS011;47395;42.032;-8.634;2024-01-30T08:00:58;34.53;;;20.05;;
61527;SDS011;47395;42.032;-8.634;2024-01-30T08:03:00;26.52;;;19.20;;
61527;SDS011;47395;42.032;-8.634;2024-01-30T08:05:03;34.83;;;20.08;;
61527;SDS011;47395;42.032;-8.634;2024-01-30T08:07:05;31.88;;;21.25;;
61527;SDS011;47395;42.032;-8.634;2024-01-30T08:09:05;40.13;;;21.45;;
61527;SDS011;47395;42.032;-8.634;2024-01-30T08:11:07;29.30;;;21.10;;
61527;SDS011;47395;42.032;-8.634;2024-01-30T08:13:09;30.42;;;20.55;;
61527;SDS011;47395;42.032;-8.634;2024-01-30T08:15:12;31.58;;;19.27;;
61527;SDS011;47395;42.032;-8.634;2024-01-30T08:17:13;31.73;;;19.90;;
61527;SDS011;47395;42.032;-8.634;2024-01-30T08:19:14;28.20;;;19.15;;
61527;SDS011;47395;42.032;-8.634;2024-01-30T08:21:16;26.40;;;19.40;;
61527;SDS011;47395;42.032;-8.634;2024-01-30T08:23:18;33.00;;;18.50;;
61527;SDS011;47395;42.032;-8.634;2024-01-30T08:25:19;26.58;;;19.48;;
61527;SDS011;47395;42.032;-8.634;2024-01-30T08:27:20;26.65;;;19.38;;
61527;SDS011;47395;42.032;-8.634;2024-01-30T08:29:22;34.85;;;19.73;;
61527;SDS011;47395;42.032;-8.634;2024-01-30T08:31:24;32.20;;;20.30;;
61527;SDS011;47395;42.032;-8.634;2024-01-30T08:33:25;26.95;;;19.13;;
61527;SDS011;47395;42.032;-8.634;2024-01-30T08:35:28;36.88;;;20.05;;
61527;SDS011;47395;42.032;-8.634;2024-01-30T08:37:32;26.40;;;19.10;;
61527;SDS011;47395;42.032;-8.634;2024-01-30T08:39:33;28.83;;;18.75;;
61527;SDS011;47395;42.032;-8.634;2024-01-30T08:41:34;29.48;;;18.08;;
61527;SDS011;47395;42.032;-8.634;2024-01-30T08:43:35;27.95;;;18.38;;
61527;SDS011;47395;42.032;-8.634;2024-01-30T08:45:36;30.50;;;18.23;;
61527;SDS011;47395;42.032;-8.634;2024-01-30T08:47:37;29.67;;;17.95;;
61527;SDS011;47395;42.032;-8.634;2024-01-30T08:49:38;22.35;;;18.00;;
61527;SDS011;47395;42.032;-8.634;2024-01-30T08:51:39;29.40;;;18.90;;
61527;SDS011;47395;42.032;-8.634;2024-01-30T08:53:40;23.23;;;17.30;;
61527;SDS011;47395;42.032;-8.634;2024-01-30T08:55:42;30.77;;;18.83;;
61527;SDS011;47395;42.032;-8.634;2024-01-30T08:57:45;29.20;;;17.52;;
61527;SDS011;47395;42.032;-8.634;2024-01-30T08:59:46;26.20;;;17.88;;
61527;SDS011;47395;42.032;-8.634;2024-01-30T09:01:48;27.83;;;17.35;;
61527;SDS011;47395;42.032;-8.634;2024-01-30T09:03:49;26.23;;;17.38;;
61527;SDS011;47395;42.032;-8.634;2024-01-30T09:05:50;27.13;;;17.10;;
61527;SDS011;47395;42.032;-8.634;2024-01-30T09:07:51;27.35;;;17.13;;
61527;SDS011;47395;42.032;-8.634;2024-01-30T09:09:52;25.58;;;16.58;;
61527;SDS011;47395;42.032;-8.634;2024-01-30T09:11:54;28.48;;;18.13;;
61527;SDS011;47395;42.032;-8.634;2024-01-30T09:13:55;28.67;;;17.25;;
61527;SDS011;47395;42.032;-8.634;2024-01-30T09:15:57;26.38;;;16.88;;
61527;SDS011;47395;42.032;-8.634;2024-01-30T09:17:58;25.30;;;17.42;;
61527;SDS011;47395;42.032;-8.634;2024-01-30T09:20:01;23.35;;;15.95;;
61527;SDS011;47395;42.032;-8.634;2024-01-30T09:22:02;27.48;;;16.65;;
61527;SDS011;47395;42.032;-8.634;2024-01-30T09:24:03;26.58;;;15.23;;
61527;SDS011;47395;42.032;-8.634;2024-01-30T09:26:05;33.20;;;16.88;;
61527;SDS011;47395;42.032;-8.634;2024-01-30T09:28:06;22.73;;;15.88;;
61527;SDS011;47395;42.032;-8.634;2024-01-30T09:30:08;21.10;;;14.43;;
61527;SDS011;47395;42.032;-8.634;2024-01-30T09:32:09;21.15;;;14.75;;
61527;SDS011;47395;42.032;-8.634;2024-01-30T09:34:12;29.33;;;15.43;;
61527;SDS011;47395;42.032;-8.634;2024-01-30T09:36:13;21.27;;;15.88;;
61527;SDS011;47395;42.032;-8.634;2024-01-30T09:38:21;24.80;;;15.43;;
61527;SDS011;47395;42.032;-8.634;2024-01-30T09:40:22;22.05;;;15.23;;
61527;SDS011;47395;42.032;-8.634;2024-01-30T09:42:33;23.67;;;13.93;;
61527;SDS011;47395;42.032;-8.634;2024-01-30T09:44:39;18.52;;;14.32;;
61527;SDS011;47395;42.032;-8.634;2024-01-30T09:46:44;17.63;;;12.48;;
61527;SDS011;47395;42.032;-8.634;2024-01-30T09:48:50;22.33;;;12.60;;
61527;SDS011;47395;42.032;-8.634;2024-01-30T09:50:52;20.70;;;12.82;;
61527;SDS011;47395;42.032;-8.634;2024-01-30T09:52:54;21.13;;;12.68;;
61527;SDS011;47395;42.032;-8.634;2024-01-30T09:55:01;17.08;;;12.65;;
61527;SDS011;47395;42.032;-8.634;2024-01-30T09:57:03;19.02;;;14.13;;
61527;SDS011;47395;42.032;-8.634;2024-01-30T09:59:04;19.92;;;13.38;;
61527;SDS011;47395;42.032;-8.634;2024-01-30T10:01:06;21.45;;;14.43;;
61527;SDS011;47395;42.032;-8.634;2024-01-30T10:03:08;17.80;;;14.25;;
61527;SDS011;47395;42.032;-8.634;2024-01-30T10:05:10;21.27;;;13.98;;
61527;SDS011;47395;42.032;-8.634;2024-01-30T10:07:16;24.80;;;16.38;;
61527;SDS011;47395;42.032;-8.634;2024-01-30T10:09:18;17.23;;;14.43;;
61527;SDS011;47395;42.032;-8.634;2024-01-30T10:11:20;23.95;;;15.18;;
61527;SDS011;47395;42.032;-8.634;2024-01-30T10:13:22;19.73;;;14.57;;
61527;SDS011;47395;42.032;-8.634;2024-01-30T10:15:24;25.85;;;15.10;;
61527;SDS011;47395;42.032;-8.634;2024-01-30T10:17:26;19.63;;;15.02;;
61527;SDS011;47395;42.032;-8.634;2024-01-30T10:19:27;23.90;;;15.30;;
61527;SDS011;47395;42.032;-8.634;2024-01-30T10:21:29;21.95;;;15.35;;
61527;SDS011;47395;42.032;-8.634;2024-01-30T10:23:30;26.38;;;15.98;;
61527;SDS011;47395;42.032;-8.634;2024-01-30T10:25:32;31.15;;;16.45;;
61527;SDS011;47395;42.032;-8.634;2024-01-30T10:27:33;27.75;;;16.48;;
61527;SDS011;47395;42.032;-8.634;2024-01-30T10:29:35;25.67;;;16.58;;
61527;SDS011;47395;42.032;-8.634;2024-01-30T10:31:38;23.42;;;17.23;;
61527;SDS011;47395;42.032;-8.634;2024-01-30T10:33:41;21.70;;;16.52;;
61527;SDS011;47395;42.032;-8.634;2024-01-30T10:35:43;29.55;;;16.70;;
61527;SDS011;47395;42.032;-8.634;2024-01-30T10:37:46;28.27;;;17.25;;
61527;SDS011;47395;42.032;-8.634;2024-01-30T10:39:48;22.00;;;16.27;;
61527;SDS011;47395;42.032;-8.634;2024-01-30T10:41:51;27.90;;;17.80;;
61527;SDS011;47395;42.032;-8.634;2024-01-30T10:44:03;21.98;;;16.88;;
61527;SDS011;47395;42.032;-8.634;2024-01-30T10:46:10;25.08;;;15.45;;
61527;SDS011;47395;42.032;-8.634;2024-01-30T10:48:16;26.17;;;16.10;;
61527;SDS011;47395;42.032;-8.634;2024-01-30T10:50:19;23.48;;;15.82;;
61527;SDS011;47395;42.032;-8.634;2024-01-30T10:52:21;26.65;;;18.38;;
61527;SDS011;47395;42.032;-8.634;2024-01-30T10:54:25;32.83;;;17.80;;
61527;SDS011;47395;42.032;-8.634;2024-01-30T10:56:28;28.67;;;17.30;;
61527;SDS011;47395;42.032;-8.634;2024-01-30T10:58:33;29.88;;;18.17;;
61527;SDS011;47395;42.032;-8.634;2024-01-30T11:00:34;28.30;;;18.25;;
61527;SDS011;47395;42.032;-8.634;2024-01-30T11:02:36;27.80;;;16.80;;
61527;SDS011;47395;42.032;-8.634;2024-01-30T11:04:42;31.73;;;18.30;;
61527;SDS011;47395;42.032;-8.634;2024-01-30T11:06:44;39.40;;;17.92;;
61527;SDS011;47395;42.032;-8.634;2024-01-30T11:08:45;37.30;;;16.88;;
61527;SDS011;47395;42.032;-8.634;2024-01-30T11:10:46;24.10;;;16.00;;
61527;SDS011;47395;42.032;-8.634;2024-01-30T11:12:47;24.75;;;16.50;;
61527;SDS011;47395;42.032;-8.634;2024-01-30T11:15:01;24.80;;;17.35;;
61527;SDS011;47395;42.032;-8.634;2024-01-30T11:17:06;26.25;;;16.50;;
61527;SDS011;47395;42.032;-8.634;2024-01-30T11:19:12;24.85;;;16.77;;
61527;SDS011;47395;42.032;-8.634;2024-01-30T11:21:13;24.80;;;16.00;;
61527;SDS011;47395;42.032;-8.634;2024-01-30T11:23:15;23.17;;;16.83;;
61527;SDS011;47395;42.032;-8.634;2024-01-30T11:25:22;28.83;;;18.65;;
61527;SDS011;47395;42.032;-8.634;2024-01-30T11:27:30;29.67;;;17.98;;
61527;SDS011;47395;42.032;-8.634;2024-01-30T11:29:38;31.60;;;17.48;;
61527;SDS011;47395;42.032;-8.634;2024-01-30T11:32:00;26.92;;;17.60;;
61527;SDS011;47395;42.032;-8.634;2024-01-30T11:34:04;28.50;;;19.00;;
61527;SDS011;47395;42.032;-8.634;2024-01-30T11:36:05;28.85;;;18.77;;
61527;SDS011;47395;42.032;-8.634;2024-01-30T11:38:27;26.38;;;17.70;;
61527;SDS011;47395;42.032;-8.634;2024-01-30T11:40:29;24.17;;;18.13;;
61527;SDS011;47395;42.032;-8.634;2024-01-30T11:42:31;29.27;;;18.80;;
61527;SDS011;47395;42.032;-8.634;2024-01-30T11:44:33;31.10;;;18.58;;
61527;SDS011;47395;42.032;-8.634;2024-01-30T11:46:34;26.70;;;18.42;;
61527;SDS011;47395;42.032;-8.634;2024-01-30T11:48:38;28.02;;;19.35;;